createdAt,value
2022-10-22T00:00:51.938Z,28.00
2022-10-22T00:03:42.163Z,26.40
2022-10-22T00:06:31.487Z,27.58
2022-10-22T00:09:21.554Z,26.55
2022-10-22T00:12:10.702Z,26.52
2022-10-22T00:15:00.734Z,27.73
2022-10-22T00:17:51.317Z,28.80
2022-10-22T00:20:44.393Z,30.98
2022-10-22T00:23:33.997Z,32.35
2022-10-22T00:26:23.402Z,31.58
2022-10-22T00:34:50.458Z,35.70
2022-10-22T00:37:39.708Z,34.92
2022-10-22T00:40:30.398Z,36.55
2022-10-22T00:43:21.013Z,37.83
2022-10-22T00:46:10.584Z,37.15
2022-10-22T00:49:02.241Z,35.55
2022-10-22T00:51:51.254Z,36.45
2022-10-22T00:54:41.844Z,36.50
2022-10-22T00:57:30.812Z,36.70
2022-10-22T01:00:20.023Z,35.17
2022-10-22T01:03:08.743Z,38.35
2022-10-22T01:06:01.234Z,46.47
2022-10-22T01:09:14.552Z,43.33
2022-10-22T01:12:22.246Z,46.28
2022-10-22T01:15:28.589Z,45.40
2022-10-22T01:18:34.878Z,46.67
2022-10-22T01:21:36.701Z,35.95
2022-10-22T01:25:10.518Z,36.70
2022-10-22T01:28:11.275Z,38.03
2022-10-22T01:31:04.883Z,42.20
2022-10-22T01:33:55.147Z,45.78
2022-10-22T01:36:45.370Z,44.25
2022-10-22T01:39:36.033Z,46.00
2022-10-22T01:42:25.986Z,45.50
2022-10-22T01:45:15.757Z,42.85
2022-10-22T01:48:28.402Z,40.95
2022-10-22T01:51:32.223Z,38.53
2022-10-22T01:54:50.748Z,38.72
2022-10-22T01:57:45.129Z,36.88
2022-10-22T02:00:34.594Z,33.55
2022-10-22T02:03:28.194Z,29.20
2022-10-22T02:06:20.961Z,28.35
2022-10-22T02:09:10.422Z,33.03
2022-10-22T02:14:58.485Z,35.42
2022-10-22T02:17:49.276Z,36.97
2022-10-22T02:20:40.580Z,35.95
2022-10-22T02:23:29.753Z,36.63
2022-10-22T02:26:29.798Z,34.30
2022-10-22T02:29:26.378Z,35.67
2022-10-22T02:32:19.720Z,38.80
2022-10-22T02:35:11.332Z,42.88
2022-10-22T02:38:01.475Z,42.72
2022-10-22T02:40:53.333Z,42.22
2022-10-22T02:43:43.959Z,42.47
2022-10-22T02:46:32.737Z,42.15
2022-10-22T02:49:21.669Z,41.58
2022-10-22T02:52:10.921Z,45.58
2022-10-22T02:55:01.282Z,42.72
2022-10-22T02:57:50.435Z,45.75
2022-10-22T03:00:39.582Z,42.08
2022-10-22T03:03:28.683Z,44.78
2022-10-22T03:06:17.530Z,40.63
2022-10-22T03:09:06.690Z,39.83
2022-10-22T03:11:55.652Z,41.15
2022-10-22T03:14:44.933Z,39.35
2022-10-22T03:17:37.051Z,40.92
2022-10-22T03:20:26.885Z,38.28
2022-10-22T03:23:18.074Z,38.40
2022-10-22T03:26:08.167Z,38.13
2022-10-22T03:28:57.411Z,35.63
2022-10-22T03:31:46.254Z,33.65
2022-10-22T03:34:35.420Z,34.00
2022-10-22T03:37:25.593Z,32.03
2022-10-22T03:40:14.871Z,31.98
2022-10-22T03:43:04.284Z,32.00
2022-10-22T03:45:53.409Z,34.60
2022-10-22T03:48:42.299Z,33.65
2022-10-22T03:51:35.183Z,36.75
2022-10-22T03:54:24.658Z,34.95
2022-10-22T03:57:14.180Z,37.45
2022-10-22T04:00:04.380Z,37.45
2022-10-22T04:02:54.290Z,36.65
2022-10-22T04:05:43.766Z,38.17
2022-10-22T04:08:33.133Z,36.88
2022-10-22T04:11:22.657Z,36.58
2022-10-22T04:14:13.023Z,33.05
2022-10-22T04:17:02.043Z,37.97
2022-10-22T04:19:51.208Z,34.08
2022-10-22T04:22:40.519Z,37.00
2022-10-22T04:25:30.077Z,44.13
2022-10-22T04:28:19.769Z,37.47
2022-10-22T04:31:14.412Z,38.00
2022-10-22T04:34:03.728Z,32.25
2022-10-22T04:36:54.443Z,32.95
2022-10-22T04:39:43.254Z,34.67
2022-10-22T04:42:33.394Z,36.80
2022-10-22T04:45:22.648Z,38.30
2022-10-22T04:48:16.447Z,39.05
2022-10-22T04:51:07.678Z,39.67
2022-10-22T04:53:56.930Z,45.53
2022-10-22T04:56:45.642Z,36.60
2022-10-22T04:59:34.958Z,39.00
2022-10-22T05:02:24.362Z,40.97
2022-10-22T05:05:13.480Z,37.08
2022-10-22T05:08:03.193Z,37.97
2022-10-22T05:10:54.606Z,36.58
2022-10-22T05:13:43.938Z,39.28
2022-10-22T05:16:34.079Z,36.08
2022-10-22T05:19:26.508Z,36.65
2022-10-22T05:22:15.423Z,36.42
2022-10-22T05:25:04.827Z,32.58
2022-10-22T05:27:58.401Z,34.60
2022-10-22T05:30:58.505Z,33.20
2022-10-22T05:33:47.941Z,34.13
2022-10-22T05:36:37.070Z,37.78
2022-10-22T05:39:25.704Z,42.08
2022-10-22T05:42:14.669Z,43.65
2022-10-22T05:45:03.925Z,46.00
2022-10-22T05:47:53.350Z,46.70
2022-10-22T05:51:15.449Z,54.25
2022-10-22T05:54:07.197Z,53.45
2022-10-22T05:56:56.621Z,48.60
2022-10-22T05:59:45.223Z,52.42
2022-10-22T06:02:35.760Z,51.15
2022-10-22T06:05:27.095Z,46.70
2022-10-22T06:08:18.962Z,47.42
2022-10-22T06:11:08.625Z,45.45
2022-10-22T06:13:59.169Z,47.08
2022-10-22T06:16:48.115Z,45.55
2022-10-22T06:19:37.419Z,44.78
2022-10-22T06:22:26.583Z,42.17
2022-10-22T06:25:15.534Z,45.40
2022-10-22T06:28:04.847Z,46.33
2022-10-22T06:30:53.713Z,40.15
2022-10-22T06:33:45.374Z,27.73
2022-10-22T06:36:34.704Z,25.17
2022-10-22T06:39:23.356Z,27.50
2022-10-22T06:42:12.183Z,25.15
2022-10-22T06:45:04.349Z,33.67
2022-10-22T06:47:53.199Z,35.92
2022-10-22T06:50:42.902Z,42.60
2022-10-22T06:53:31.896Z,47.40
2022-10-22T06:56:24.837Z,50.40
2022-10-22T06:59:13.785Z,52.88
2022-10-22T07:02:03.699Z,50.53
2022-10-22T07:04:53.123Z,49.90
2022-10-22T07:07:42.097Z,51.53
2022-10-22T07:10:31.021Z,45.70
2022-10-22T07:13:21.088Z,47.25
2022-10-22T07:16:11.659Z,48.17
2022-10-22T07:19:01.658Z,45.85
2022-10-22T07:21:50.947Z,46.50
2022-10-22T07:24:43.403Z,46.20
2022-10-22T07:27:36.932Z,48.90
2022-10-22T07:30:25.982Z,49.45
2022-10-22T07:33:15.054Z,49.70
2022-10-22T07:36:07.382Z,55.60
2022-10-22T07:38:59.281Z,60.83
2022-10-22T07:41:48.028Z,62.45
2022-10-22T07:44:37.080Z,58.33
2022-10-22T07:47:26.255Z,58.08
2022-10-22T07:50:15.688Z,57.90
2022-10-22T07:53:07.198Z,57.88
2022-10-22T07:55:56.329Z,59.20
2022-10-22T07:58:45.326Z,60.47
2022-10-22T08:01:38.635Z,59.88
2022-10-22T08:04:28.937Z,59.33
2022-10-22T08:07:18.169Z,56.95
2022-10-22T08:10:08.364Z,53.00
2022-10-22T08:12:58.257Z,54.28
2022-10-22T08:15:49.648Z,52.42
2022-10-22T08:18:40.524Z,49.25
2022-10-22T08:21:29.517Z,46.00
2022-10-22T08:24:47.501Z,43.45
2022-10-22T08:27:38.945Z,36.88
2022-10-22T08:30:30.880Z,37.72
2022-10-22T08:33:19.907Z,35.35
2022-10-22T08:36:10.309Z,31.05
2022-10-22T08:38:59.413Z,29.58
2022-10-22T08:41:59.837Z,27.38
2022-10-22T08:45:12.741Z,25.65
2022-10-22T08:48:21.810Z,27.83
2022-10-22T08:51:17.029Z,34.47
2022-10-22T08:54:24.479Z,21.13
2022-10-22T09:00:39.465Z,20.70
2022-10-22T09:04:05.947Z,20.70
2022-10-22T09:06:56.028Z,16.23
2022-10-22T09:09:49.180Z,17.55
2022-10-22T09:12:38.537Z,19.25
2022-10-22T09:15:27.956Z,19.55
2022-10-22T09:18:35.385Z,19.70
2022-10-22T09:21:45.935Z,18.55
2022-10-22T09:24:48.507Z,18.98
2022-10-22T09:27:38.625Z,24.25
2022-10-22T09:30:33.668Z,23.60
2022-10-22T09:33:33.782Z,21.35
2022-10-22T09:36:24.351Z,22.48
2022-10-22T09:39:31.331Z,23.75
2022-10-22T09:42:22.574Z,26.20
2022-10-22T09:45:23.223Z,23.20
2022-10-22T09:48:22.696Z,23.85
2022-10-22T09:51:23.090Z,22.83
2022-10-22T09:54:18.663Z,24.13
2022-10-22T09:57:17.612Z,23.48
2022-10-22T10:00:10.580Z,23.70
2022-10-22T10:03:01.747Z,24.77
2022-10-22T10:05:55.168Z,23.75
2022-10-22T10:08:44.419Z,23.45
2022-10-22T10:11:45.167Z,27.67
2022-10-22T10:14:39.201Z,28.85
2022-10-22T10:17:31.061Z,31.50
2022-10-22T10:20:45.282Z,31.30
2022-10-22T10:23:52.389Z,22.70
2022-10-22T10:26:45.113Z,22.58
2022-10-22T10:29:52.942Z,21.30
2022-10-22T10:33:03.153Z,26.83
2022-10-22T10:36:26.677Z,25.15
2022-10-22T10:39:42.617Z,22.60
2022-10-22T10:42:35.305Z,23.50
2022-10-22T10:45:34.379Z,26.13
2022-10-22T10:48:52.265Z,27.52
2022-10-22T10:51:55.759Z,30.02
2022-10-22T10:55:12.628Z,30.52
2022-10-22T10:58:30.895Z,33.22
2022-10-22T11:01:51.373Z,32.63
2022-10-22T11:04:53.716Z,34.22
2022-10-22T11:07:52.291Z,35.40
2022-10-22T11:10:52.421Z,33.90
2022-10-22T11:14:00.635Z,33.95
2022-10-22T11:17:03.490Z,33.00
2022-10-22T11:20:07.310Z,32.05
2022-10-22T11:23:20.935Z,28.05
2022-10-22T11:26:34.476Z,27.23
2022-10-22T11:29:29.385Z,27.58
2022-10-22T11:32:22.916Z,25.67
2022-10-22T11:35:22.229Z,25.58
2022-10-22T11:38:22.059Z,26.42
2022-10-22T11:41:15.199Z,27.15
2022-10-22T11:44:10.540Z,24.83
2022-10-22T11:47:05.993Z,29.13
2022-10-22T11:50:05.151Z,29.92
2022-10-22T11:53:04.226Z,30.58
2022-10-22T11:56:00.781Z,36.42
2022-10-22T11:58:53.815Z,35.85
2022-10-22T12:01:47.745Z,34.58
2022-10-22T12:04:44.062Z,37.15
2022-10-22T12:07:58.085Z,37.15
2022-10-22T12:11:05.259Z,37.15
2022-10-22T12:14:16.506Z,35.25
2022-10-22T12:17:15.783Z,33.90
2022-10-22T12:20:15.813Z,33.08
2022-10-22T12:23:06.301Z,32.13
2022-10-22T12:25:59.431Z,31.70
2022-10-22T12:28:47.926Z,32.03
2022-10-22T12:31:39.521Z,33.75
2022-10-22T12:34:30.447Z,33.55
2022-10-22T12:37:20.703Z,32.13
2022-10-22T12:40:45.891Z,31.13
2022-10-22T12:43:40.561Z,31.60
2022-10-22T12:46:30.435Z,34.92
2022-10-22T12:49:22.885Z,32.28
2022-10-22T12:52:18.059Z,29.88
2022-10-22T12:55:11.144Z,31.65
2022-10-22T12:58:07.576Z,33.28
2022-10-22T13:01:02.970Z,30.90
2022-10-22T13:04:04.914Z,31.45
2022-10-22T13:07:16.976Z,30.85
2022-10-22T13:10:28.957Z,30.35
2022-10-22T13:13:36.689Z,30.55
2022-10-22T13:16:28.747Z,29.55
2022-10-22T13:19:41.450Z,32.92
2022-10-22T13:22:42.486Z,31.30
2022-10-22T13:25:38.264Z,30.35
2022-10-22T13:28:27.572Z,30.92
2022-10-22T13:31:21.636Z,28.73
2022-10-22T13:34:20.234Z,30.02
2022-10-22T13:37:10.943Z,27.73
2022-10-22T13:40:01.068Z,30.13
2022-10-22T13:42:50.731Z,28.95
2022-10-22T13:45:40.289Z,29.05
2022-10-22T13:48:30.458Z,31.70
2022-10-22T13:51:25.366Z,35.08
2022-10-22T13:54:20.022Z,38.10
2022-10-22T13:57:12.177Z,40.70
2022-10-22T14:00:01.598Z,39.08
2022-10-22T14:03:01.326Z,40.78
2022-10-22T14:05:50.971Z,40.60
2022-10-22T14:08:41.365Z,38.58
2022-10-22T14:11:36.096Z,32.72
2022-10-22T14:14:27.401Z,34.38
2022-10-22T14:17:18.263Z,35.13
2022-10-22T14:20:07.988Z,36.63
2022-10-22T14:22:57.474Z,37.72
2022-10-22T14:25:46.243Z,39.45
2022-10-22T14:28:41.253Z,41.35
2022-10-22T14:31:45.065Z,36.85
2022-10-22T14:34:33.983Z,35.08
2022-10-22T14:37:24.607Z,35.00
2022-10-22T14:40:18.565Z,32.60
2022-10-22T14:43:07.617Z,31.60
2022-10-22T14:45:59.764Z,30.33
2022-10-22T14:48:49.874Z,33.45
2022-10-22T14:51:40.155Z,32.03
2022-10-22T14:54:29.273Z,31.77
2022-10-22T14:57:18.686Z,34.42
2022-10-22T15:00:10.891Z,33.63
2022-10-22T15:03:03.406Z,35.05
2022-10-22T15:05:55.076Z,34.10
2022-10-22T15:08:44.016Z,31.67
2022-10-22T15:11:33.529Z,29.20
2022-10-22T15:14:22.967Z,28.75
2022-10-22T15:17:12.193Z,27.40
2022-10-22T15:20:04.995Z,27.27
2022-10-22T15:22:54.554Z,28.10
2022-10-22T15:25:45.277Z,28.98
2022-10-22T15:28:34.741Z,29.23
2022-10-22T15:31:46.963Z,28.42
2022-10-22T15:34:37.717Z,28.85
2022-10-22T15:37:29.612Z,29.73
2022-10-22T15:40:19.094Z,29.92
2022-10-22T15:43:28.881Z,29.13
2022-10-22T15:46:20.318Z,29.40
2022-10-22T15:49:09.435Z,29.73
2022-10-22T15:51:58.282Z,44.45
2022-10-22T15:54:47.363Z,33.50
2022-10-22T15:57:36.266Z,33.85
2022-10-22T16:00:26.700Z,33.75
2022-10-22T16:03:15.665Z,31.38
2022-10-22T16:06:10.246Z,31.35
2022-10-22T16:09:01.548Z,34.65
2022-10-22T16:14:46.837Z,33.85
2022-10-22T16:17:36.611Z,35.05
2022-10-22T16:20:26.667Z,34.30
2022-10-22T16:23:19.648Z,34.58
2022-10-22T16:26:08.696Z,35.80
2022-10-22T16:28:57.494Z,32.75
2022-10-22T16:31:47.335Z,29.80
2022-10-22T16:34:39.112Z,29.48
2022-10-22T16:37:29.326Z,29.88
2022-10-22T16:40:18.696Z,30.42
2022-10-22T16:43:07.874Z,29.95
2022-10-22T16:45:56.811Z,31.98
2022-10-22T16:48:49.668Z,30.40
2022-10-22T16:51:38.655Z,24.92
2022-10-22T16:54:29.004Z,24.10
2022-10-22T16:57:18.407Z,24.08
2022-10-22T17:00:08.337Z,24.25
2022-10-22T17:02:57.721Z,24.15
2022-10-22T17:05:46.754Z,23.70
2022-10-22T17:08:38.392Z,23.33
2022-10-22T17:11:30.821Z,23.15
2022-10-22T17:14:19.775Z,22.55
2022-10-22T17:17:08.960Z,24.45
2022-10-22T17:19:57.778Z,22.67
2022-10-22T17:22:49.171Z,21.88
2022-10-22T17:25:44.131Z,19.65
2022-10-22T17:28:33.147Z,16.38
2022-10-22T17:31:28.679Z,16.92
2022-10-22T17:34:23.173Z,16.65
2022-10-22T17:37:13.298Z,15.65
2022-10-22T17:40:04.040Z,15.57
2022-10-22T17:42:52.670Z,15.23
2022-10-22T17:45:41.819Z,14.88
2022-10-22T17:48:30.880Z,14.27
2022-10-22T17:51:21.511Z,14.13
2022-10-22T17:54:11.879Z,13.93
2022-10-22T17:57:01.295Z,13.48
2022-10-22T17:59:50.366Z,11.75
2022-10-22T18:02:39.854Z,10.65
2022-10-22T18:05:29.208Z,11.15
2022-10-22T18:08:18.476Z,12.07
2022-10-22T18:11:11.883Z,11.63
2022-10-22T18:14:00.923Z,12.90
2022-10-22T18:16:53.178Z,11.63
2022-10-22T18:19:42.063Z,12.55
2022-10-22T18:22:33.140Z,12.77
2022-10-22T18:25:22.814Z,13.15
2022-10-22T18:28:20.155Z,14.15
2022-10-22T18:31:12.345Z,15.27
2022-10-22T18:34:04.198Z,14.68
2022-10-22T18:36:54.090Z,13.73
2022-10-22T18:39:43.184Z,14.20
2022-10-22T18:42:34.568Z,13.55
2022-10-22T18:45:25.745Z,13.38
2022-10-22T18:48:19.555Z,12.10
2022-10-22T18:51:10.247Z,12.43
2022-10-22T18:54:21.726Z,12.48
2022-10-22T18:57:11.992Z,12.27
2022-10-22T19:00:00.931Z,12.82
2022-10-22T19:02:49.945Z,13.52
2022-10-22T19:05:53.328Z,14.57
2022-10-22T19:08:44.836Z,16.08
2022-10-22T19:11:34.652Z,15.75
2022-10-22T19:14:23.859Z,15.70
2022-10-22T19:17:13.854Z,16.35
2022-10-22T19:20:03.863Z,16.35
2022-10-22T19:22:54.351Z,17.08
2022-10-22T19:25:44.133Z,18.35
2022-10-22T19:28:33.462Z,19.27
2022-10-22T19:31:24.491Z,18.67
2022-10-22T19:34:13.458Z,20.98
2022-10-22T19:37:03.768Z,21.92
2022-10-22T19:39:53.085Z,21.67
2022-10-22T19:42:45.143Z,22.23
2022-10-22T19:45:34.248Z,22.33
2022-10-22T19:48:23.574Z,22.10
2022-10-22T19:51:18.083Z,22.08
2022-10-22T19:54:10.112Z,22.63
2022-10-22T19:56:59.287Z,23.55
2022-10-22T19:59:50.265Z,23.80
2022-10-22T20:02:39.883Z,24.10
2022-10-22T20:05:28.653Z,24.48
2022-10-22T20:08:18.506Z,22.95
2022-10-22T20:11:13.195Z,23.30
2022-10-22T20:14:02.816Z,25.15
2022-10-22T20:16:51.708Z,24.50
2022-10-22T20:19:40.625Z,25.58
2022-10-22T20:22:29.437Z,25.58
2022-10-22T20:25:20.017Z,24.92
2022-10-22T20:28:08.609Z,26.48
2022-10-22T20:31:00.451Z,24.95
2022-10-22T20:33:50.015Z,24.30
2022-10-22T20:36:39.547Z,24.65
2022-10-22T20:39:28.253Z,24.92
2022-10-22T20:42:18.394Z,25.90
2022-10-22T20:45:08.080Z,24.45
2022-10-22T20:48:02.585Z,24.90
2022-10-22T20:50:51.644Z,24.52
2022-10-22T20:53:41.281Z,24.20
2022-10-22T20:56:30.237Z,22.67
2022-10-22T20:59:20.808Z,23.63
2022-10-22T21:02:10.904Z,22.35
2022-10-22T21:05:00.237Z,24.42
2022-10-22T21:07:52.218Z,22.42
2022-10-22T21:10:41.108Z,24.48
2022-10-22T21:13:33.534Z,25.38
2022-10-22T21:16:22.723Z,25.45
2022-10-22T21:19:12.881Z,26.42
2022-10-22T21:22:02.173Z,26.00
2022-10-22T21:24:51.179Z,23.98
2022-10-22T21:27:40.540Z,24.30
2022-10-22T21:30:29.511Z,22.60
2022-10-22T21:33:19.382Z,23.42
2022-10-22T21:36:09.966Z,22.80
2022-10-22T21:38:59.084Z,22.60
2022-10-22T21:41:48.249Z,22.73
2022-10-22T21:44:37.786Z,22.63
2022-10-22T21:47:26.744Z,21.35
2022-10-22T21:50:15.898Z,23.65
2022-10-22T21:53:05.038Z,23.80
2022-10-22T21:55:54.539Z,29.17
2022-10-22T21:58:43.650Z,27.52
2022-10-22T22:01:38.311Z,29.80
2022-10-22T22:04:28.844Z,27.63
2022-10-22T22:07:21.092Z,27.17
2022-10-22T22:10:10.623Z,26.45
2022-10-22T22:12:59.691Z,23.20
2022-10-22T22:15:48.544Z,20.90
2022-10-22T22:18:39.194Z,20.70
2022-10-22T22:21:28.401Z,19.05
2022-10-22T22:24:17.439Z,18.20
2022-10-22T22:27:06.723Z,18.63
2022-10-22T22:29:56.593Z,19.30
2022-10-22T22:32:45.467Z,18.15
2022-10-22T22:38:32.548Z,17.52
2022-10-22T22:41:21.552Z,17.35
2022-10-22T22:44:11.561Z,14.93
2022-10-22T22:47:01.554Z,15.48
2022-10-22T22:49:53.136Z,16.00
2022-10-22T22:52:42.726Z,14.27
2022-10-22T22:55:32.940Z,14.55
2022-10-22T22:58:24.443Z,14.13
2022-10-22T23:01:25.275Z,14.60
2022-10-22T23:04:19.911Z,14.82
2022-10-22T23:07:09.375Z,14.95
2022-10-22T23:09:58.386Z,13.60
2022-10-22T23:12:51.527Z,14.27
2022-10-22T23:15:41.508Z,14.35
2022-10-22T23:18:30.381Z,15.65
2022-10-22T23:21:24.278Z,16.40
2022-10-22T23:24:16.378Z,16.70
2022-10-22T23:27:05.920Z,17.42
2022-10-22T23:29:55.167Z,16.42
2022-10-22T23:32:44.642Z,16.30
2022-10-22T23:35:33.614Z,16.98
2022-10-22T23:38:23.191Z,15.80
2022-10-22T23:41:12.673Z,16.50
2022-10-22T23:44:01.570Z,17.70
2022-10-22T23:46:50.831Z,16.85
2022-10-22T23:49:39.896Z,16.00
2022-10-22T23:52:32.819Z,16.95
2022-10-22T23:55:22.429Z,17.25
2022-10-22T23:58:12.250Z,21.00
